createdAt,value
2019-01-12T00:03:45.030Z,53.30
2019-01-12T00:07:11.726Z,48.37
2019-01-12T00:08:35.237Z,48.13
2019-01-12T00:09:58.726Z,47.23
2019-01-12T00:11:22.211Z,46.17
2019-01-12T00:12:45.738Z,45.50
2019-01-12T00:14:09.210Z,48.40
2019-01-12T00:15:32.699Z,45.90
2019-01-12T00:17:13.823Z,51.23
2019-01-12T00:18:37.322Z,53.90
2019-01-12T00:20:00.833Z,46.43
2019-01-12T00:23:11.442Z,43.93
2019-01-12T00:24:31.462Z,43.87
2019-01-12T00:25:44.831Z,48.87
2019-01-12T00:28:55.550Z,47.67
2019-01-12T00:30:10.081Z,53.13
2019-01-12T00:31:33.566Z,46.27
2019-01-12T00:32:57.062Z,38.40
2019-01-12T00:34:20.568Z,43.57
2019-01-12T00:35:44.057Z,40.43
2019-01-12T00:37:07.569Z,44.20
2019-01-12T00:42:22.258Z,43.20
2019-01-12T00:43:45.790Z,45.67
2019-01-12T00:47:12.926Z,41.67
2019-01-12T00:48:36.410Z,48.90
2019-01-12T00:49:59.906Z,37.67
2019-01-12T00:51:23.398Z,39.57
2019-01-12T00:53:06.058Z,40.13
2019-01-12T00:54:29.562Z,40.93
2019-01-12T00:55:53.054Z,37.27
2019-01-12T00:57:16.570Z,41.23
2019-01-12T00:58:40.054Z,46.53
2019-01-12T01:01:54.121Z,40.20
2019-01-12T01:03:36.778Z,45.97
2019-01-12T01:04:59.342Z,44.30
2019-01-12T01:06:22.822Z,40.33
2019-01-12T01:08:05.478Z,46.17
2019-01-12T01:09:48.166Z,52.37
2019-01-12T01:11:11.647Z,36.80
2019-01-12T01:12:35.142Z,40.93
2019-01-12T01:14:17.837Z,50.40
2019-01-12T01:15:41.321Z,40.50
2019-01-12T01:17:04.895Z,44.83
2019-01-12T01:18:28.554Z,44.43
2019-01-12T01:19:52.066Z,50.87
2019-01-12T01:21:15.558Z,39.93
2019-01-12T01:24:21.718Z,55.40
2019-01-12T01:25:45.224Z,40.00
2019-01-12T01:27:08.715Z,34.67
2019-01-12T01:28:32.202Z,44.87
2019-01-12T01:29:55.718Z,44.70
2019-01-12T01:31:19.208Z,52.70
2019-01-12T01:32:42.694Z,32.67
2019-01-12T01:35:30.004Z,34.27
2019-01-12T01:36:53.498Z,36.07
2019-01-12T01:38:16.986Z,35.00
2019-01-12T01:39:40.493Z,43.40
2019-01-12T01:41:23.182Z,35.70
2019-01-12T01:42:46.748Z,33.20
2019-01-12T01:44:10.242Z,43.67
2019-01-12T01:45:33.746Z,33.97
2019-01-12T01:46:57.237Z,34.47
2019-01-12T01:48:20.749Z,31.30
2019-01-12T01:49:44.262Z,46.67
2019-01-12T01:51:07.754Z,38.87
2019-01-12T01:52:50.442Z,40.53
2019-01-12T01:54:13.934Z,33.33
2019-01-12T01:55:37.454Z,26.67
2019-01-12T01:57:00.965Z,31.30
2019-01-12T01:58:24.450Z,27.57
2019-01-12T01:59:47.938Z,30.77
2019-01-12T02:01:11.450Z,35.00
2019-01-12T02:02:54.107Z,34.07
2019-01-12T02:04:17.610Z,35.23
2019-01-12T02:05:41.126Z,36.87
2019-01-12T02:07:23.808Z,36.97
2019-01-12T02:09:06.489Z,34.93
2019-01-12T02:10:30.056Z,34.60
2019-01-12T02:11:53.574Z,33.90
2019-01-12T02:13:17.066Z,29.37
2019-01-12T02:14:40.546Z,31.00
2019-01-12T02:17:53.751Z,33.17
2019-01-12T02:19:17.233Z,29.20
2019-01-12T02:20:31.419Z,41.47
2019-01-12T02:21:54.938Z,28.17
2019-01-12T02:23:18.416Z,33.50
2019-01-12T02:24:41.929Z,29.93
2019-01-12T02:26:05.478Z,32.57
2019-01-12T02:27:28.968Z,29.90
2019-01-12T02:28:52.491Z,27.97
2019-01-12T02:30:35.203Z,32.13
2019-01-12T02:32:17.891Z,32.70
2019-01-12T02:33:41.382Z,28.63
2019-01-12T02:35:05.032Z,32.23
2019-01-12T02:36:28.537Z,30.37
2019-01-12T02:38:11.206Z,33.70
2019-01-12T02:39:34.693Z,29.37
2019-01-12T02:40:58.191Z,27.03
2019-01-12T02:42:21.705Z,36.27
2019-01-12T02:43:45.189Z,26.57
2019-01-12T02:45:08.941Z,26.53
2019-01-12T02:46:32.463Z,30.77
2019-01-12T02:48:15.081Z,26.10
2019-01-12T02:51:02.374Z,32.47
2019-01-12T02:52:25.901Z,36.23
2019-01-12T02:53:49.417Z,32.97
2019-01-12T02:55:32.066Z,28.10
2019-01-12T02:56:55.580Z,27.70
2019-01-12T02:58:19.110Z,27.37
2019-01-12T02:59:42.671Z,33.33
2019-01-12T03:01:06.191Z,35.37
2019-01-12T03:02:29.690Z,26.13
2019-01-12T03:03:53.203Z,32.70
2019-01-12T03:05:35.862Z,32.10
2019-01-12T03:06:59.382Z,35.87
2019-01-12T03:08:22.902Z,34.77
2019-01-12T03:09:46.414Z,37.30
2019-01-12T03:11:09.909Z,35.93
2019-01-12T03:12:33.412Z,32.50
2019-01-12T03:13:56.898Z,36.63
2019-01-12T03:15:39.571Z,28.53
2019-01-12T03:17:03.101Z,31.80
2019-01-12T03:18:26.593Z,31.07
2019-01-12T03:20:09.278Z,34.00
2019-01-12T03:21:25.155Z,33.23
2019-01-12T03:22:39.459Z,34.90
2019-01-12T03:24:02.982Z,29.40
2019-01-12T03:25:28.163Z,31.60
2019-01-12T03:28:34.231Z,36.70
2019-01-12T03:29:57.735Z,33.67
2019-01-12T03:31:21.235Z,30.93
2019-01-12T03:32:44.763Z,28.07
2019-01-12T03:34:08.443Z,30.10
2019-01-12T03:35:51.127Z,32.03
2019-01-12T03:37:14.601Z,34.50
2019-01-12T03:38:38.140Z,34.77
2019-01-12T03:40:01.719Z,28.40
2019-01-12T03:41:25.227Z,28.57
2019-01-12T03:42:48.800Z,28.37
2019-01-12T03:44:12.296Z,27.87
2019-01-12T03:45:35.810Z,29.00
2019-01-12T03:46:59.310Z,34.97
2019-01-12T03:48:22.887Z,26.33
2019-01-12T03:49:46.402Z,30.50
2019-01-12T03:51:09.923Z,25.17
2019-01-12T03:54:38.858Z,29.40
2019-01-12T03:56:02.449Z,31.67
2019-01-12T03:57:25.926Z,30.93
2019-01-12T03:58:49.458Z,24.67
2019-01-12T04:00:14.550Z,21.90
2019-01-12T04:01:38.037Z,21.10
2019-01-12T04:03:01.579Z,21.53
2019-01-12T04:04:25.176Z,22.67
2019-01-12T04:05:48.774Z,26.33
2019-01-12T04:07:31.438Z,22.27
2019-01-12T04:08:54.969Z,21.93
2019-01-12T04:10:18.454Z,21.73
2019-01-12T04:11:41.950Z,16.33
2019-01-12T04:13:05.521Z,21.07
2019-01-12T04:14:29.030Z,15.60
2019-01-12T04:15:52.523Z,13.00
2019-01-12T04:17:16.042Z,13.07
2019-01-12T04:18:39.558Z,15.57
2019-01-12T04:22:06.427Z,12.07
2019-01-12T04:23:29.950Z,10.50
2019-01-12T04:24:53.456Z,11.87
2019-01-12T04:26:16.948Z,12.13
2019-01-12T04:27:40.453Z,6.90
2019-01-12T04:29:23.114Z,11.93
2019-01-12T04:30:46.613Z,11.37
2019-01-12T04:33:33.931Z,13.60
2019-01-12T04:34:57.431Z,10.80
2019-01-12T04:36:20.947Z,8.77
2019-01-12T04:37:44.443Z,8.57
2019-01-12T04:39:08.138Z,7.40
2019-01-12T04:40:31.630Z,11.07
2019-01-12T04:41:55.162Z,8.20
2019-01-12T04:43:18.647Z,9.07
2019-01-12T04:44:43.901Z,6.90
2019-01-12T04:46:07.378Z,7.83
2019-01-12T04:47:30.902Z,11.80
2019-01-12T04:51:00.770Z,7.33
2019-01-12T04:52:24.490Z,6.50
2019-01-12T04:57:01.162Z,9.50
2019-01-12T04:58:24.680Z,12.37
2019-01-12T04:59:48.211Z,8.57
2019-01-12T05:01:11.728Z,12.20
2019-01-12T05:02:35.208Z,11.83
2019-01-12T05:04:34.402Z,9.57
2019-01-12T05:05:57.918Z,9.33
2019-01-12T05:07:21.406Z,13.37
2019-01-12T05:08:44.902Z,15.43
2019-01-12T05:12:11.978Z,11.27
2019-01-12T05:13:35.495Z,13.10
2019-01-12T05:14:59.010Z,10.37
2019-01-12T05:16:22.538Z,11.03
2019-01-12T05:17:46.037Z,10.47
2019-01-12T05:19:28.706Z,9.83
2019-01-12T05:20:43.138Z,9.93
2019-01-12T05:22:25.814Z,11.77
2019-01-12T05:23:49.318Z,13.77
2019-01-12T05:25:31.966Z,14.67
2019-01-12T05:26:55.508Z,13.57
2019-01-12T05:28:19.023Z,11.70
2019-01-12T05:29:42.514Z,8.83
2019-01-12T05:31:06.009Z,9.53
2019-01-12T05:32:29.502Z,12.17
2019-01-12T05:33:53.117Z,9.60
2019-01-12T05:35:16.649Z,8.80
2019-01-12T05:36:40.148Z,13.07
2019-01-12T05:38:03.631Z,11.77
2019-01-12T05:39:27.150Z,11.97
2019-01-12T05:40:50.666Z,8.43
2019-01-12T05:42:14.190Z,10.57
2019-01-12T05:43:37.691Z,12.23
2019-01-12T05:45:01.206Z,12.37
2019-01-12T05:46:24.857Z,11.80
2019-01-12T05:49:30.959Z,17.67
2019-01-12T05:50:54.470Z,12.53
2019-01-12T05:52:18.059Z,12.53
2019-01-12T05:53:43.181Z,9.83
2019-01-12T05:55:27.567Z,10.93
2019-01-12T05:56:51.055Z,12.23
2019-01-12T05:58:14.567Z,10.50
2019-01-12T05:59:38.062Z,10.33
2019-01-12T06:01:01.581Z,12.47
2019-01-12T06:02:25.066Z,10.17
2019-01-12T06:03:48.574Z,8.37
2019-01-12T06:05:12.156Z,8.07
2019-01-12T06:06:35.666Z,9.73
2019-01-12T06:10:05.922Z,7.20
2019-01-12T06:11:29.433Z,7.27
2019-01-12T06:12:52.950Z,8.20
2019-01-12T06:15:40.241Z,10.97
2019-01-12T06:19:04.067Z,12.23
2019-01-12T06:20:39.875Z,10.37
2019-01-12T06:21:53.998Z,10.57
2019-01-12T06:23:17.506Z,6.47
2019-01-12T06:24:41.003Z,14.43
2019-01-12T06:26:04.490Z,9.80
2019-01-12T06:27:28.094Z,7.90
2019-01-12T06:28:50.620Z,12.40
2019-01-12T06:30:15.489Z,9.20
2019-01-12T06:31:56.890Z,13.47
2019-01-12T06:33:38.071Z,8.80
2019-01-12T06:35:01.603Z,13.83
2019-01-12T06:36:25.136Z,6.17
2019-01-12T06:37:48.646Z,5.87
2019-01-12T06:39:12.175Z,7.70
2019-01-12T06:40:35.663Z,8.07
2019-01-12T06:41:59.177Z,10.47
2019-01-12T06:43:22.694Z,14.40
2019-01-12T06:44:46.226Z,4.63
2019-01-12T06:46:09.713Z,8.40
2019-01-12T06:47:33.221Z,6.40
2019-01-12T06:48:56.693Z,8.47
2019-01-12T06:50:37.951Z,9.73
2019-01-12T06:52:19.342Z,7.50
2019-01-12T06:53:42.874Z,7.33
2019-01-12T06:55:07.454Z,6.87
2019-01-12T06:56:30.966Z,9.73
2019-01-12T06:59:18.258Z,6.63
2019-01-12T07:00:41.759Z,7.80
2019-01-12T07:04:24.943Z,10.53
2019-01-12T07:05:48.534Z,8.70
2019-01-12T07:07:12.026Z,8.03
2019-01-12T07:08:35.539Z,7.03
2019-01-12T07:09:59.058Z,8.63
2019-01-12T07:11:22.562Z,11.47
2019-01-12T07:12:46.122Z,8.13
2019-01-12T07:14:09.605Z,5.17
2019-01-12T07:15:52.310Z,9.43
2019-01-12T07:19:36.674Z,7.80
2019-01-12T07:22:35.566Z,9.13
2019-01-12T07:23:49.646Z,4.27
2019-01-12T07:25:33.802Z,7.07
2019-01-12T07:26:57.306Z,7.60
2019-01-12T07:28:20.798Z,6.33
2019-01-12T07:29:44.293Z,10.30
2019-01-12T07:31:07.798Z,4.27
2019-01-12T07:32:31.309Z,6.87
2019-01-12T07:35:58.033Z,7.30
2019-01-12T07:37:21.537Z,5.80
2019-01-12T07:38:45.049Z,3.53
2019-01-12T07:40:08.710Z,5.03
2019-01-12T07:41:32.221Z,5.50
2019-01-12T07:44:39.638Z,5.10
2019-01-12T07:46:02.531Z,6.67
2019-01-12T07:47:26.091Z,9.57
2019-01-12T07:48:49.583Z,10.33
2019-01-12T07:51:36.975Z,7.57
2019-01-12T07:53:00.480Z,7.73
2019-01-12T07:54:23.991Z,5.07
2019-01-12T07:55:47.483Z,7.03
2019-01-12T07:57:29.006Z,9.20
2019-01-12T07:58:52.490Z,7.40
2019-01-12T08:00:19.957Z,5.53
2019-01-12T08:01:43.477Z,7.63
2019-01-12T08:03:06.973Z,6.77
2019-01-12T08:04:30.512Z,6.43
2019-01-12T08:07:17.805Z,10.77
2019-01-12T08:08:41.299Z,6.73
2019-01-12T08:12:28.510Z,7.67
2019-01-12T08:13:51.987Z,5.20
2019-01-12T08:15:34.666Z,8.57
2019-01-12T08:16:58.187Z,9.40
2019-01-12T08:18:21.758Z,6.03
2019-01-12T08:19:45.246Z,8.67
2019-01-12T08:24:34.042Z,8.87
2019-01-12T08:25:57.558Z,7.77
2019-01-12T08:27:21.107Z,9.47
2019-01-12T08:31:04.011Z,9.50
2019-01-12T08:34:33.769Z,10.70
2019-01-12T08:37:59.071Z,12.07
2019-01-12T08:39:22.590Z,8.70
2019-01-12T08:42:28.663Z,11.13
2019-01-12T08:43:52.237Z,10.67
2019-01-12T08:45:15.958Z,11.17
2019-01-12T08:46:39.454Z,7.60
2019-01-12T08:48:02.985Z,10.43
2019-01-12T08:49:26.506Z,9.60
2019-01-12T08:52:34.434Z,9.93
2019-01-12T08:53:57.918Z,13.10
2019-01-12T08:55:21.418Z,8.97
2019-01-12T08:56:44.940Z,10.00
2019-01-12T08:58:08.410Z,11.60
2019-01-12T09:01:51.413Z,11.83
2019-01-12T09:03:51.695Z,7.70
2019-01-12T09:05:15.259Z,10.50
2019-01-12T09:08:58.053Z,9.00
2019-01-12T09:12:25.155Z,7.73
2019-01-12T09:13:48.673Z,7.23
2019-01-12T09:17:34.628Z,7.43
2019-01-12T09:18:58.121Z,9.63
2019-01-12T09:20:12.693Z,9.83
2019-01-12T09:23:55.645Z,6.17
2019-01-12T09:27:22.337Z,11.83
2019-01-12T09:29:05.037Z,9.40
2019-01-12T09:30:28.518Z,6.40
2019-01-12T09:31:52.022Z,7.20
2019-01-12T09:33:15.547Z,6.93
2019-01-12T09:36:44.958Z,7.57
2019-01-12T09:38:08.506Z,5.43
2019-01-12T09:39:30.748Z,7.90
2019-01-12T09:40:54.316Z,46.80
2019-01-12T09:42:36.986Z,9.70
2019-01-12T09:44:00.515Z,8.40
2019-01-12T09:46:47.820Z,5.03
2019-01-12T09:48:30.488Z,6.73
2019-01-12T09:49:54.154Z,5.57
2019-01-12T09:51:17.650Z,8.43
2019-01-12T09:52:41.246Z,8.07
2019-01-12T09:54:16.061Z,4.97
2019-01-12T09:57:36.639Z,7.47
2019-01-12T09:59:00.138Z,6.40
2019-01-12T10:02:14.429Z,6.33
2019-01-12T10:03:38.210Z,7.30
2019-01-12T10:05:01.739Z,7.07
2019-01-12T10:06:25.278Z,6.83
2019-01-12T10:08:07.951Z,6.60
2019-01-12T10:09:31.477Z,9.30
2019-01-12T10:10:55.008Z,7.50
2019-01-12T10:12:37.690Z,6.20
2019-01-12T10:14:01.199Z,6.17
2019-01-12T10:15:24.766Z,6.13
2019-01-12T10:16:48.295Z,7.07
2019-01-12T10:18:11.774Z,6.47
2019-01-12T10:19:35.311Z,6.20
2019-01-12T10:20:51.217Z,6.27
2019-01-12T10:22:05.602Z,6.73
2019-01-12T10:23:29.095Z,6.53
2019-01-12T10:24:52.610Z,3.90
2019-01-12T10:26:16.130Z,5.93
2019-01-12T10:27:39.650Z,6.60
2019-01-12T10:29:03.139Z,4.70
2019-01-12T10:32:16.049Z,6.40
2019-01-12T10:33:39.588Z,6.70
2019-01-12T10:35:03.106Z,10.00
2019-01-12T10:36:26.678Z,7.93
2019-01-12T10:37:50.245Z,4.33
2019-01-12T10:39:17.898Z,10.27
2019-01-12T10:40:38.951Z,8.57
2019-01-12T10:42:02.468Z,8.90
2019-01-12T10:43:25.974Z,9.77
2019-01-12T10:44:49.482Z,7.73
2019-01-12T10:46:13.050Z,9.47
2019-01-12T10:47:36.673Z,6.93
2019-01-12T10:49:00.182Z,8.47
2019-01-12T10:52:17.407Z,9.00
2019-01-12T10:54:00.082Z,9.53
2019-01-12T10:55:23.649Z,9.87
2019-01-12T10:56:47.149Z,9.70
2019-01-12T10:58:10.851Z,9.30
2019-01-12T10:59:53.522Z,11.73
2019-01-12T11:01:17.033Z,11.13
2019-01-12T11:02:40.545Z,12.37
2019-01-12T11:09:33.595Z,11.07
2019-01-12T11:10:57.149Z,13.60
2019-01-12T11:12:20.729Z,13.93
2019-01-12T11:13:44.335Z,10.73
2019-01-12T11:15:08.798Z,11.37
2019-01-12T11:16:31.649Z,12.77
2019-01-12T11:17:55.155Z,13.10
2019-01-12T11:21:14.358Z,15.30
2019-01-12T11:22:30.286Z,13.10
2019-01-12T11:23:44.774Z,15.87
2019-01-12T11:27:12.527Z,11.57
2019-01-12T11:28:37.434Z,14.63
2019-01-12T11:30:00.942Z,14.17
2019-01-12T11:31:25.320Z,12.60
2019-01-12T11:34:38.490Z,16.40
2019-01-12T11:36:02.049Z,15.83
2019-01-12T11:37:25.585Z,15.97
2019-01-12T11:38:49.082Z,16.83
2019-01-12T11:40:35.859Z,19.27
2019-01-12T11:41:59.369Z,18.27
2019-01-12T11:43:22.891Z,16.67
2019-01-12T11:44:46.406Z,19.47
2019-01-12T11:46:09.919Z,17.47
2019-01-12T11:47:33.482Z,20.63
2019-01-12T11:48:56.995Z,19.27
2019-01-12T11:50:20.487Z,21.90
2019-01-12T11:51:44.002Z,17.73
2019-01-12T11:53:07.550Z,21.80
2019-01-12T11:54:31.062Z,19.03
2019-01-12T11:55:54.590Z,21.77
2019-01-12T11:57:19.267Z,24.57
2019-01-12T11:58:43.311Z,22.13
2019-01-12T12:02:12.921Z,22.20
2019-01-12T12:03:55.593Z,19.73
2019-01-12T12:05:19.572Z,18.63
2019-01-12T12:06:43.077Z,22.60
2019-01-12T12:08:06.589Z,18.63
2019-01-12T12:09:30.091Z,22.93
2019-01-12T12:10:53.619Z,20.50
2019-01-12T12:12:17.106Z,21.83
2019-01-12T12:13:40.626Z,19.97
2019-01-12T12:17:08.231Z,20.43
2019-01-12T12:18:31.727Z,19.87
2019-01-12T12:19:55.294Z,18.83
2019-01-12T12:21:11.205Z,21.37
2019-01-12T12:22:27.211Z,21.13
2019-01-12T12:23:43.135Z,19.83
2019-01-12T12:24:59.103Z,21.80
2019-01-12T12:26:15.005Z,25.33
2019-01-12T12:27:29.453Z,19.23
2019-01-12T12:28:52.958Z,21.13
2019-01-12T12:30:35.707Z,20.20
2019-01-12T12:31:59.251Z,19.13
2019-01-12T12:33:22.775Z,20.53
2019-01-12T12:34:46.362Z,18.77
2019-01-12T12:37:33.778Z,21.20
2019-01-12T12:42:55.235Z,18.90
2019-01-12T12:44:18.887Z,14.47
2019-01-12T12:45:42.402Z,12.47
2019-01-12T12:47:05.957Z,13.10
2019-01-12T12:49:53.350Z,14.63
2019-01-12T12:51:36.027Z,12.97
2019-01-12T12:53:18.690Z,12.67
2019-01-12T12:54:42.205Z,13.63
2019-01-12T12:56:05.759Z,12.33
2019-01-12T12:57:32.852Z,12.10
2019-01-12T12:58:54.603Z,11.03
2019-01-12T13:00:36.017Z,11.70
2019-01-12T13:01:59.577Z,11.63
2019-01-12T13:03:23.131Z,14.13
2019-01-12T13:04:46.621Z,11.57
2019-01-12T13:06:10.164Z,10.97
2019-01-12T13:08:57.454Z,10.53
2019-01-12T13:11:54.970Z,11.13
2019-01-12T13:15:38.049Z,12.17
2019-01-12T13:17:01.558Z,11.03
2019-01-12T13:18:25.074Z,11.33
2019-01-12T13:19:48.595Z,10.60
2019-01-12T13:21:04.654Z,10.80
2019-01-12T13:22:18.968Z,11.53
2019-01-12T13:23:42.481Z,9.87
2019-01-12T13:25:06.250Z,11.73
2019-01-12T13:26:29.746Z,9.93
2019-01-12T13:29:56.454Z,9.13
2019-01-12T13:31:20.050Z,9.70
2019-01-12T13:32:43.633Z,9.40
2019-01-12T13:34:26.287Z,8.70
2019-01-12T13:35:49.790Z,9.77
2019-01-12T13:39:32.834Z,8.67
2019-01-12T13:40:56.359Z,7.67
2019-01-12T13:42:19.878Z,7.17
2019-01-12T13:43:43.358Z,8.23
2019-01-12T13:47:11.107Z,7.70
2019-01-12T13:48:34.631Z,5.67
2019-01-12T13:49:58.134Z,4.63
2019-01-12T13:51:21.634Z,6.43
2019-01-12T13:53:04.300Z,4.47
2019-01-12T13:54:27.789Z,6.77
2019-01-12T13:55:51.277Z,5.13
2019-01-12T13:57:14.802Z,5.83
2019-01-12T13:58:38.306Z,5.13
2019-01-12T14:02:40.264Z,4.87
2019-01-12T14:04:03.779Z,5.13
2019-01-12T14:05:27.289Z,5.97
2019-01-12T14:06:50.805Z,5.73
2019-01-12T14:08:14.330Z,7.87
2019-01-12T14:09:37.849Z,5.03
2019-01-12T14:11:01.355Z,4.20
2019-01-12T14:12:24.887Z,4.17
2019-01-12T14:13:48.393Z,8.87
2019-01-12T14:17:15.433Z,6.77
2019-01-12T14:18:38.934Z,5.07
2019-01-12T14:20:21.633Z,4.90
2019-01-12T14:21:45.131Z,4.27
2019-01-12T14:23:09.122Z,5.97
2019-01-12T14:24:32.622Z,5.30
2019-01-12T14:25:56.137Z,11.17
2019-01-12T14:27:19.659Z,9.93
2019-01-12T14:28:43.258Z,8.33
2019-01-12T14:32:30.213Z,14.67
2019-01-12T14:35:57.014Z,17.70
2019-01-12T14:37:20.525Z,11.67
2019-01-12T14:38:44.013Z,15.57
2019-01-12T14:42:12.050Z,10.80
2019-01-12T14:43:35.542Z,12.53
2019-01-12T14:44:59.079Z,21.37
2019-01-12T14:46:22.566Z,14.90
2019-01-12T14:47:46.105Z,17.27
2019-01-12T14:49:28.794Z,15.53
2019-01-12T14:50:52.322Z,21.33
2019-01-12T14:52:15.837Z,20.70
2019-01-12T14:53:39.331Z,21.03
2019-01-12T14:55:22.047Z,22.83
2019-01-12T14:56:45.621Z,18.67
2019-01-12T14:58:09.149Z,21.73
2019-01-12T14:59:32.660Z,28.27
2019-01-12T15:00:56.183Z,18.70
2019-01-12T15:02:19.692Z,27.23
2019-01-12T15:03:43.227Z,16.30
2019-01-12T15:05:07.735Z,22.30
2019-01-12T15:06:31.218Z,19.93
2019-01-12T15:07:54.746Z,15.93
2019-01-12T15:09:18.270Z,20.53
2019-01-12T15:10:41.786Z,18.07
2019-01-12T15:12:24.471Z,25.20
2019-01-12T15:13:47.998Z,22.50
2019-01-12T15:17:15.094Z,19.27
2019-01-12T15:18:38.625Z,25.07
2019-01-12T15:20:02.121Z,21.27
2019-01-12T15:21:18.154Z,19.47
2019-01-12T15:22:32.635Z,22.33
2019-01-12T15:23:56.130Z,18.00
2019-01-12T15:27:22.898Z,23.37
2019-01-12T15:28:46.418Z,26.67
2019-01-12T15:30:33.522Z,23.43
2019-01-12T15:31:57.014Z,25.47
2019-01-12T15:33:20.543Z,24.27
2019-01-12T15:34:44.075Z,22.80
2019-01-12T15:36:07.634Z,21.43
2019-01-12T15:37:31.142Z,29.07
2019-01-12T15:38:54.676Z,32.57
2019-01-12T15:40:18.805Z,25.03
2019-01-12T15:41:42.338Z,21.20
2019-01-12T15:43:05.914Z,26.17
2019-01-12T15:44:29.407Z,31.97
2019-01-12T15:45:52.903Z,28.83
2019-01-12T15:47:16.404Z,25.37
2019-01-12T15:48:39.906Z,27.80
2019-01-12T15:52:22.907Z,22.40
2019-01-12T15:53:46.408Z,21.13
2019-01-12T15:55:09.907Z,24.57
2019-01-12T15:56:33.430Z,25.60
2019-01-12T15:57:56.914Z,26.40
2019-01-12T15:59:20.451Z,21.43
2019-01-12T16:00:43.961Z,15.37
2019-01-12T16:02:07.470Z,30.80
2019-01-12T16:03:30.969Z,27.20
2019-01-12T16:04:54.494Z,22.47
2019-01-12T16:06:17.986Z,28.07
2019-01-12T16:07:41.507Z,25.83
2019-01-12T16:10:56.190Z,20.43
2019-01-12T16:12:19.705Z,26.17
2019-01-12T16:13:43.233Z,19.13
2019-01-12T16:17:11.479Z,24.80
2019-01-12T16:18:34.986Z,27.17
2019-01-12T16:19:58.503Z,28.60
2019-01-12T16:21:14.654Z,25.33
2019-01-12T16:22:30.426Z,27.73
2019-01-12T16:23:44.830Z,28.77
2019-01-12T16:25:08.477Z,21.17
2019-01-12T16:26:31.968Z,24.50
2019-01-12T16:27:55.460Z,24.60
2019-01-12T16:29:18.989Z,25.97
2019-01-12T16:30:42.498Z,18.17
2019-01-12T16:32:05.986Z,20.43
2019-01-12T16:33:29.472Z,22.80
2019-01-12T16:36:22.147Z,17.77
2019-01-12T16:37:45.731Z,21.90
2019-01-12T16:39:09.258Z,25.67
2019-01-12T16:40:51.947Z,27.03
2019-01-12T16:42:15.469Z,24.70
2019-01-12T16:43:38.966Z,19.37
2019-01-12T16:45:02.494Z,18.83
2019-01-12T16:46:25.997Z,25.53
2019-01-12T16:49:52.717Z,17.17
2019-01-12T16:51:16.209Z,20.63
2019-01-12T16:52:39.777Z,28.13
2019-01-12T16:54:03.295Z,21.23
2019-01-12T16:55:26.796Z,20.87
2019-01-12T16:56:50.289Z,21.23
2019-01-12T16:58:13.783Z,22.17
2019-01-12T16:59:37.308Z,17.43
2019-01-12T17:01:00.822Z,24.10
2019-01-12T17:02:43.486Z,22.57
2019-01-12T17:04:07.019Z,21.07
2019-01-12T17:05:49.687Z,26.93
2019-01-12T17:07:13.190Z,23.37
2019-01-12T17:08:36.697Z,23.90
2019-01-12T17:10:00.256Z,30.23
2019-01-12T17:13:08.021Z,25.87
2019-01-12T17:14:31.559Z,30.80
2019-01-12T17:15:55.078Z,21.80
2019-01-12T17:17:18.598Z,26.70
2019-01-12T17:19:01.249Z,28.30
2019-01-12T17:20:16.925Z,25.97
2019-01-12T17:21:40.418Z,30.47
2019-01-12T17:23:23.778Z,24.97
2019-01-12T17:24:47.309Z,23.10
2019-01-12T17:26:10.859Z,26.17
2019-01-12T17:27:34.345Z,20.20
2019-01-12T17:28:57.874Z,18.13
2019-01-12T17:30:40.927Z,24.60
2019-01-12T17:32:04.490Z,23.47
2019-01-12T17:33:28.000Z,21.77
2019-01-12T17:34:51.530Z,19.73
2019-01-12T17:36:15.034Z,26.30
2019-01-12T17:37:38.549Z,32.07
2019-01-12T17:39:02.042Z,25.97
2019-01-12T17:40:44.719Z,20.57
2019-01-12T17:42:08.282Z,24.40
2019-01-12T17:43:31.782Z,23.87
2019-01-12T17:44:55.314Z,21.80
2019-01-12T17:46:18.830Z,20.40
2019-01-12T17:47:42.322Z,20.70
2019-01-12T17:49:05.844Z,20.33
2019-01-12T17:50:29.363Z,23.67
2019-01-12T17:51:52.873Z,25.60
2019-01-12T17:53:16.366Z,24.97
2019-01-12T17:54:39.878Z,25.93
2019-01-12T17:58:25.767Z,25.23
2019-01-12T17:59:49.274Z,23.23
2019-01-12T18:01:12.765Z,24.53
2019-01-12T18:02:36.263Z,28.47
2019-01-12T18:03:59.767Z,23.37
2019-01-12T18:05:23.294Z,18.97
2019-01-12T18:06:46.783Z,33.30
2019-01-12T18:08:29.567Z,27.77
2019-01-12T18:09:53.078Z,20.00
2019-01-12T18:11:16.582Z,22.47
2019-01-12T18:12:59.262Z,22.50
2019-01-12T18:14:22.778Z,24.43
2019-01-12T18:15:46.315Z,26.90
2019-01-12T18:17:09.838Z,20.23
2019-01-12T18:18:33.317Z,27.40
2019-01-12T18:19:56.838Z,30.77
2019-01-12T18:21:10.869Z,26.70
2019-01-12T18:22:34.390Z,22.73
2019-01-12T18:23:57.906Z,19.10
2019-01-12T18:25:21.434Z,22.70
2019-01-12T18:26:44.922Z,21.90
2019-01-12T18:28:27.619Z,21.80
2019-01-12T18:29:51.130Z,23.67
2019-01-12T18:31:14.650Z,17.30
2019-01-12T18:32:38.150Z,23.97
2019-01-12T18:34:01.651Z,18.43
2019-01-12T18:35:44.351Z,27.03
2019-01-12T18:37:07.883Z,24.07
2019-01-12T18:38:31.406Z,25.00
2019-01-12T18:39:54.919Z,27.10
2019-01-12T18:41:18.471Z,20.97
2019-01-12T18:42:42.047Z,20.77
2019-01-12T18:44:05.560Z,23.70
2019-01-12T18:45:48.226Z,20.60
2019-01-12T18:47:11.762Z,25.10
2019-01-12T18:48:35.250Z,26.53
2019-01-12T18:49:58.773Z,27.00
2019-01-12T18:51:22.359Z,23.27
2019-01-12T18:52:45.927Z,26.53
2019-01-12T18:54:28.600Z,24.50
2019-01-12T18:55:52.125Z,21.00
2019-01-12T18:57:15.642Z,21.97
2019-01-12T18:58:39.159Z,22.40
2019-01-12T19:02:25.066Z,24.97
2019-01-12T19:03:48.589Z,19.13
2019-01-12T19:05:31.314Z,22.60
2019-01-12T19:06:54.847Z,26.97
2019-01-12T19:08:18.339Z,29.60
2019-01-12T19:09:41.861Z,27.50
2019-01-12T19:11:05.385Z,21.83
2019-01-12T19:12:28.898Z,26.77
2019-01-12T19:13:52.390Z,27.77
2019-01-12T19:17:20.214Z,27.60
2019-01-12T19:18:43.714Z,26.53
2019-01-12T19:20:07.890Z,25.43
2019-01-12T19:21:22.514Z,28.23
2019-01-12T19:22:46.139Z,20.90
2019-01-12T19:24:09.634Z,24.13
2019-01-12T19:25:33.148Z,20.27
2019-01-12T19:26:56.654Z,25.10
2019-01-12T19:28:20.199Z,20.23
2019-01-12T19:29:43.770Z,17.90
2019-01-12T19:31:07.342Z,26.13
2019-01-12T19:32:30.838Z,23.80
2019-01-12T19:33:54.361Z,19.77
2019-01-12T19:35:18.098Z,17.20
2019-01-12T19:36:41.739Z,23.63
2019-01-12T19:38:05.288Z,17.23
2019-01-12T19:39:29.643Z,21.53
2019-01-12T19:40:53.318Z,23.37
2019-01-12T19:42:16.918Z,18.23
2019-01-12T19:43:40.430Z,18.30
2019-01-12T19:47:07.214Z,19.37
2019-01-12T19:48:30.863Z,24.13
2019-01-12T19:49:54.417Z,20.43
2019-01-12T19:51:17.983Z,17.67
2019-01-12T19:52:41.521Z,14.23
2019-01-12T19:54:05.163Z,20.00
2019-01-12T19:55:28.682Z,13.10
2019-01-12T19:58:22.827Z,15.77
2019-01-12T19:59:46.334Z,22.53
2019-01-12T20:01:10.079Z,21.93
2019-01-12T20:02:33.614Z,18.10
2019-01-12T20:03:57.113Z,17.40
2019-01-12T20:05:20.634Z,20.23
2019-01-12T20:06:44.188Z,16.13
2019-01-12T20:08:07.831Z,14.37
2019-01-12T20:09:31.370Z,19.27
2019-01-12T20:10:54.944Z,21.47
2019-01-12T20:12:18.482Z,26.13
2019-01-12T20:13:42.154Z,19.50
2019-01-12T20:15:06.650Z,17.60
2019-01-12T20:18:14.390Z,20.30
2019-01-12T20:19:37.934Z,16.43
2019-01-12T20:21:01.552Z,14.50
2019-01-12T20:22:25.174Z,16.10
2019-01-12T20:23:48.702Z,18.07
2019-01-12T20:27:33.617Z,22.30
2019-01-12T20:28:56.890Z,16.40
2019-01-12T20:30:39.650Z,21.30
2019-01-12T20:32:22.465Z,21.50
2019-01-12T20:34:05.216Z,17.80
2019-01-12T20:35:47.968Z,17.17
2019-01-12T20:37:30.715Z,13.87
2019-01-12T20:38:59.150Z,18.60
2019-01-12T20:40:25.578Z,23.30
2019-01-12T20:42:08.371Z,22.50
2019-01-12T20:43:51.098Z,21.77
2019-01-12T20:45:33.831Z,17.33
2019-01-12T20:47:16.697Z,17.13
2019-01-12T20:48:59.409Z,19.27
2019-01-12T20:50:42.122Z,14.50
2019-01-12T20:52:11.201Z,21.37
2019-01-12T20:53:53.942Z,22.23
2019-01-12T20:55:36.703Z,13.57
2019-01-12T20:57:19.494Z,15.20
2019-01-12T20:59:02.264Z,18.67
2019-01-12T21:00:45.010Z,20.17
2019-01-12T21:02:27.779Z,12.50
2019-01-12T21:04:10.568Z,12.77
2019-01-12T21:05:37.147Z,12.97
2019-01-12T21:07:19.866Z,11.43
2019-01-12T21:09:05.151Z,9.53
2019-01-12T21:10:47.046Z,7.57
2019-01-12T21:12:29.810Z,12.60
2019-01-12T21:14:12.537Z,14.53
2019-01-12T21:15:38.359Z,9.30
2019-01-12T21:17:12.458Z,16.47
2019-01-12T21:18:35.965Z,9.73
2019-01-12T21:20:18.618Z,8.40
2019-01-12T21:21:33.054Z,9.47
2019-01-12T21:22:56.611Z,6.77
2019-01-12T21:24:20.206Z,14.73
2019-01-12T21:25:43.731Z,10.93
2019-01-12T21:27:07.271Z,8.57